Time;durP1;ratioP1;P1;durP2;ratioP2;P2;SDS_P1;SDS_P2;PMS_P1;PMS_P2;Temp;Humidity;BMP_temperature;BMP_pressure;BME280_temperature;BME280_humidity;BME280_pressure;Samples;Min_cycle;Max_cycle;Signal;HPM_P1;HPM_P2
2023/11/15 00:01:14;;;;;;;;;;;;;;;-144.99;100.00;52594.84;5083286;28;20050;-61
2023/11/15 00:03:42;;;;;;;;;;;;;;;-144.99;100.00;52588.75;5090940;28;20307;-61
2023/11/15 00:06:08;;;;;;;;;;;;;;;-144.99;100.00;52592.81;5085440;28;19971;-62
2023/11/15 00:08:35;;;;;;;;;;;;;;;-144.99;100.00;52590.78;5090837;28;19932;-61
2023/11/15 00:11:01;;;;;;;;;;;;;;;-144.99;100.00;52570.38;5084967;28;20031;-61
2023/11/15 00:13:28;;;;;;;;;;;;;;;-144.99;100.00;52635.63;5090508;28;19931;-60
2023/11/15 00:15:55;;;;;;;;;;;;;;;-144.99;100.00;52562.25;5091475;28;19993;-63
2023/11/15 00:18:21;;;;;;;;;;;;;;;-144.99;100.00;52566.31;5084952;28;19925;-63
2023/11/15 00:20:51;;;;;;;;;;;;;;;-144.99;100.00;52598.94;5078810;28;19939;-65
2023/11/15 00:23:18;;;;;;;;;;;;;;;-144.99;100.00;52598.94;5083768;28;19925;-68
2023/11/15 00:25:45;;;;;;;;;;;;;;;-144.99;100.00;52568.34;5085339;28;19924;-63
2023/11/15 00:28:11;;;;;;;;;;;;;;;-144.99;100.00;52625.44;5087888;28;19928;-63
2023/11/15 00:30:37;;;;;;;;;;;;;;;-144.99;100.00;52570.38;5082596;28;19932;-64
2023/11/15 00:33:04;;;;;;;;;;;;;;;-144.99;100.00;52631.53;5088743;28;20429;-63
2023/11/15 00:35:30;;;;;;;;;;;;;;;-144.99;100.00;52619.31;5083194;28;19924;-63
2023/11/15 00:37:58;;;;;;;;;;;;;;;-144.99;100.00;52590.78;5079141;28;19983;-63
2023/11/15 00:40:25;;;;;;;;;;;;;;;-144.99;100.00;52590.78;5090078;28;20062;-64
2023/11/15 00:42:53;;;;;;;;;;;;;;;-144.99;100.00;52609.13;5089906;28;20006;-63
2023/11/15 00:45:23;;;;;;;;;;;;;;;-144.99;100.00;52580.59;5084130;28;19927;-63
2023/11/15 00:47:50;;;;;;;;;;;;;;;-144.99;100.00;52596.88;5090475;28;19923;-64
2023/11/15 00:50:18;;;;;;;;;;;;;;;-144.99;100.00;52594.84;5090270;28;19934;-62
2023/11/15 00:52:44;;;;;;;;;;;;;;;-144.99;100.00;52598.94;5087705;28;19924;-68
2023/11/15 00:55:12;;;;;;;;;;;;;;;-144.99;100.00;52574.47;5091606;28;19959;-66
2023/11/15 00:57:39;;;;;;;;;;;;;;;-144.99;100.00;52578.53;5091477;28;20010;-67
2023/11/15 01:00:21;;;;;;;;;;;;;;;-144.99;100.00;52590.78;5090521;28;19932;-69
2023/11/15 01:02:48;;;;;;;;;;;;;;;-144.99;100.00;52580.59;5090014;28;19928;-69
2023/11/15 01:05:14;;;;;;;;;;;;;;;-144.99;100.00;52611.16;5089671;28;19935;-67
2023/11/15 01:07:41;;;;;;;;;;;;;;;-144.99;100.00;52578.53;5078638;28;19987;-68
2023/11/15 01:10:09;;;;;;;;;;;;;;;-144.99;100.00;52574.47;5089548;28;19967;-68
2023/11/15 01:12:37;;;;;;;;;;;;;;;-144.99;100.00;52582.63;5089616;28;20016;-63
2023/11/15 01:15:04;;;;;;;;;;;;;;;-144.99;100.00;52582.63;5089095;28;19935;-63
2023/11/15 01:17:33;;;;;;;;;;;;;;;-144.99;100.00;52631.53;5088071;28;19924;-63
2023/11/15 01:20:00;;;;;;;;;;;;;;;-144.99;100.00;52615.25;5089878;28;19924;-65
2023/11/15 01:22:27;;;;;;;;;;;;;;;-144.99;100.00;52592.81;5089260;28;19924;-65
2023/11/15 01:24:53;;;;;;;;;;;;;;;-144.99;100.00;52582.63;5089026;28;20037;-65
2023/11/15 01:27:20;;;;;;;;;;;;;;;-144.99;100.00;52598.94;5086628;28;19929;-67
2023/11/15 01:29:48;;;;;;;;;;;;;;;-144.99;100.00;52605.03;5083145;28;19946;-68
2023/11/15 01:32:14;;;;;;;;;;;;;;;-144.99;100.00;52596.88;5088988;28;19970;-68
2023/11/15 01:34:40;;;;;;;;;;;;;;;-144.99;100.00;52605.03;5078901;28;19977;-68
2023/11/15 01:37:07;;;;;;;;;;;;;;;-144.99;100.00;52566.31;5077345;28;20258;-68
2023/11/15 01:39:33;;;;;;;;;;;;;;;-144.99;100.00;52619.31;5083782;28;19946;-69
2023/11/15 01:42:00;;;;;;;;;;;;;;;-144.99;100.00;52594.84;5077398;28;20012;-68
2023/11/15 01:44:27;;;;;;;;;;;;;;;-144.99;100.00;52609.13;5079197;28;20459;-68
2023/11/15 01:46:55;;;;;;;;;;;;;;;-144.99;100.00;52594.84;5088948;28;20309;-68
2023/11/15 01:49:22;;;;;;;;;;;;;;;-144.99;100.00;52615.25;5080807;28;19967;-69
2023/11/15 01:51:49;;;;;;;;;;;;;;;-144.99;100.00;52586.69;5086986;28;20370;-66
2023/11/15 01:54:18;;;;;;;;;;;;;;;-144.99;100.00;52576.50;5083993;28;19928;-65
2023/11/15 01:56:44;;;;;;;;;;;;;;;-144.99;100.00;52586.69;5091871;28;19924;-64
2023/11/15 01:59:11;;;;;;;;;;;;;;;-144.99;100.00;52607.09;5090750;28;19960;-64
2023/11/15 02:01:39;;;;;;;;;;;;;;;-144.99;100.00;52594.84;5084399;28;19956;-64
2023/11/15 02:04:08;;;;;;;;;;;;;;;-144.99;100.00;52594.84;5093112;28;19928;-64
2023/11/15 02:06:35;;;;;;;;;;;;;;;-144.99;100.00;52598.94;5088396;28;19936;-63
2023/11/15 02:09:02;;;;;;;;;;;;;;;-144.99;100.00;52607.09;5101199;28;19924;-64
2023/11/15 02:11:28;;;;;;;;;;;;;;;-144.99;100.00;52574.47;5090436;28;20015;-63
2023/11/15 02:13:55;;;;;;;;;;;;;;;-144.99;100.00;52590.78;5084880;28;19989;-66
2023/11/15 02:16:22;;;;;;;;;;;;;;;-144.99;100.00;52603.00;5091987;28;19932;-66
2023/11/15 02:18:49;;;;;;;;;;;;;;;-144.99;100.00;52598.94;5093425;28;19977;-66
2023/11/15 02:21:16;;;;;;;;;;;;;;;-144.99;100.00;52574.47;5093156;28;19924;-65
2023/11/15 02:23:44;;;;;;;;;;;;;;;-144.99;100.00;52629.50;5092907;28;19924;-69
2023/11/15 02:26:11;;;;;;;;;;;;;;;-144.99;100.00;52586.69;5092648;28;19924;-70
2023/11/15 02:28:37;;;;;;;;;;;;;;;-144.99;100.00;52558.16;5087543;28;19970;-69
2023/11/15 02:31:05;;;;;;;;;;;;;;;-144.99;100.00;52615.25;5092770;28;19968;-68
2023/11/15 02:33:32;;;;;;;;;;;;;;;-144.99;100.00;52607.09;5092517;28;19928;-68
2023/11/15 02:35:58;;;;;;;;;;;;;;;-144.99;100.00;52590.78;5091220;28;19932;-68
2023/11/15 02:38:25;;;;;;;;;;;;;;;-144.99;100.00;52574.47;5092440;28;20003;-69
2023/11/15 02:40:53;;;;;;;;;;;;;;;-144.99;100.00;52615.25;5092902;28;20345;-69
2023/11/15 02:43:20;;;;;;;;;;;;;;;-144.99;100.00;52631.53;5092621;28;20368;-69
2023/11/15 02:45:47;;;;;;;;;;;;;;;-144.99;100.00;52594.84;5092211;28;19932;-69
2023/11/15 02:48:13;;;;;;;;;;;;;;;-144.99;100.00;52545.94;5092416;28;19944;-69
2023/11/15 02:50:40;;;;;;;;;;;;;;;-144.99;100.00;52570.38;5092194;28;19924;-62
2023/11/15 02:53:06;;;;;;;;;;;;;;;-144.99;100.00;52590.78;5081576;28;19924;-62
2023/11/15 02:55:33;;;;;;;;;;;;;;;-144.99;100.00;52627.47;5091635;28;19940;-61
2023/11/15 02:58:03;;;;;;;;;;;;;;;-144.99;100.00;52584.66;5092300;28;19967;-71
2023/11/15 03:00:30;;;;;;;;;;;;;;;-144.99;100.00;52570.38;5092050;28;20000;-70
2023/11/15 03:02:58;;;;;;;;;;;;;;;-144.99;100.00;52613.19;5084153;28;20422;-69
2023/11/15 03:05:24;;;;;;;;;;;;;;;-144.99;100.00;52582.63;5085365;28;19930;-70
2023/11/15 03:07:51;;;;;;;;;;;;;;;-144.99;100.00;52560.19;5082724;28;20381;-70
2023/11/15 03:10:17;;;;;;;;;;;;;;;-144.99;100.00;52580.59;5091133;28;19924;-70
2023/11/15 03:12:45;;;;;;;;;;;;;;;-144.99;100.00;52617.28;5085448;28;19928;-69
2023/11/15 03:15:13;;;;;;;;;;;;;;;-144.99;100.00;52586.69;5090613;28;19947;-61
2023/11/15 03:17:40;;;;;;;;;;;;;;;-144.99;100.00;52600.97;5090390;28;20293;-67
2023/11/15 03:20:09;;;;;;;;;;;;;;;-144.99;100.00;52603.00;5092318;28;19971;-68
2023/11/15 03:22:35;;;;;;;;;;;;;;;-144.99;100.00;52607.09;5091779;28;19935;-68
2023/11/15 03:25:02;;;;;;;;;;;;;;;-144.99;100.00;52547.97;5083162;28;20385;-68
2023/11/15 03:27:27;;;;;;;;;;;;;;;-144.99;100.00;52596.88;5095479;28;19976;-69
2023/11/15 03:29:54;;;;;;;;;;;;;;;-144.99;100.00;52623.38;5091356;28;19963;-67
2023/11/15 03:32:22;;;;;;;;;;;;;;;-144.99;100.00;52598.94;5091674;28;20467;-68
2023/11/15 03:34:49;;;;;;;;;;;;;;;-144.99;100.00;52603.00;5087088;28;19924;-68
2023/11/15 03:37:15;;;;;;;;;;;;;;;-144.99;100.00;52582.63;5091033;28;20022;-66
2023/11/15 03:39:42;;;;;;;;;;;;;;;-144.99;100.00;52590.78;5091189;28;20441;-66
2023/11/15 03:42:08;;;;;;;;;;;;;;;-144.99;100.00;52588.75;5087882;28;19928;-73
2023/11/15 03:44:35;;;;;;;;;;;;;;;-144.99;100.00;52598.94;5085693;28;19962;-72
2023/11/15 03:47:02;;;;;;;;;;;;;;;-144.99;100.00;52582.63;5079678;28;20404;-72
2023/11/15 03:49:30;;;;;;;;;;;;;;;-144.99;100.00;52574.47;5083930;28;19924;-73
2023/11/15 03:51:57;;;;;;;;;;;;;;;-144.99;100.00;52621.34;5084309;28;19969;-73
2023/11/15 03:54:24;;;;;;;;;;;;;;;-144.99;100.00;52598.94;5091444;28;19924;-72
2023/11/15 03:56:50;;;;;;;;;;;;;;;-144.99;100.00;52586.69;5097404;28;19984;-72
2023/11/15 03:59:19;;;;;;;;;;;;;;;-144.99;100.00;52625.44;5091620;28;19924;-72
2023/11/15 04:01:48;;;;;;;;;;;;;;;-144.99;100.00;52590.78;5089649;28;20267;-72
2023/11/15 04:04:14;;;;;;;;;;;;;;;-144.99;100.00;52564.28;5072281;28;20424;-72
2023/11/15 04:06:42;;;;;;;;;;;;;;;-144.99;100.00;52554.09;5082057;28;19944;-67
2023/11/15 04:09:10;;;;;;;;;;;;;;;-144.99;100.00;52582.63;5082225;28;20405;-68
2023/11/15 04:11:37;;;;;;;;;;;;;;;-144.99;100.00;52582.63;5090794;28;19981;-69
2023/11/15 04:14:04;;;;;;;;;;;;;;;-144.99;100.00;52562.25;5090537;28;19924;-68
2023/11/15 04:16:31;;;;;;;;;;;;;;;-144.99;100.00;52545.94;5090352;28;19925;-71
2023/11/15 04:18:58;;;;;;;;;;;;;;;-144.99;100.00;52586.69;5089350;28;19978;-70
2023/11/15 04:21:25;;;;;;;;;;;;;;;-144.99;100.00;52590.78;5087784;28;19970;-69
2023/11/15 04:23:53;;;;;;;;;;;;;;;-144.99;100.00;52611.16;5090631;28;19924;-70
2023/11/15 04:26:20;;;;;;;;;;;;;;;-144.99;100.00;52594.84;5090114;28;19924;-70
2023/11/15 04:31:44;;;;;;;;;;;;;;;-144.99;100.00;52600.97;5973173;22;19928;-75
2023/11/15 04:34:10;;;;;;;;;;;;;;;-144.99;100.00;52570.38;5033268;28;19929;-75
2023/11/15 04:36:37;;;;;;;;;;;;;;;-144.99;100.00;52558.16;5044038;28;19995;-75
2023/11/15 04:39:06;;;;;;;;;;;;;;;-144.99;100.00;52590.78;5034704;28;19925;-75
2023/11/15 04:41:33;;;;;;;;;;;;;;;-144.99;100.00;52600.97;5037758;28;19925;-75
2023/11/15 04:44:00;;;;;;;;;;;;;;;-144.99;100.00;52592.81;5030328;28;19932;-75
2023/11/15 04:46:26;;;;;;;;;;;;;;;-144.99;100.00;52603.00;5024742;28;19987;-76
2023/11/15 04:48:53;;;;;;;;;;;;;;;-144.99;100.00;52594.84;5030918;28;20363;-76
2023/11/15 04:51:19;;;;;;;;;;;;;;;-144.99;100.00;52605.03;5028321;28;20020;-77
2023/11/15 04:53:46;;;;;;;;;;;;;;;-144.99;100.00;52550.00;5031297;28;19929;-79
2023/11/15 04:56:13;;;;;;;;;;;;;;;-144.99;100.00;52564.28;5022912;28;20025;-78
2023/11/15 04:58:40;;;;;;;;;;;;;;;-144.99;100.00;52611.16;5031422;28;20003;-78
2023/11/15 05:01:06;;;;;;;;;;;;;;;-144.99;100.00;52584.66;5013971;28;19989;-80
2023/11/15 05:03:33;;;;;;;;;;;;;;;-144.99;100.00;52613.19;5023298;28;20434;-76
2023/11/15 05:06:02;;;;;;;;;;;;;;;-144.99;100.00;52613.19;5011361;28;21951;-77
2023/11/15 05:08:28;;;;;;;;;;;;;;;-144.99;100.00;52590.78;5016585;28;19929;-76
2023/11/15 05:10:55;;;;;;;;;;;;;;;-144.99;100.00;52582.63;5017824;28;19965;-78
2023/11/15 05:13:23;;;;;;;;;;;;;;;-144.99;100.00;52582.63;5020993;28;20022;-78
2023/11/15 05:15:49;;;;;;;;;;;;;;;-144.99;100.00;52664.16;5017185;28;19976;-78
2023/11/15 05:18:15;;;;;;;;;;;;;;;-144.99;100.00;52598.94;5030700;28;20306;-76
2023/11/15 05:20:43;;;;;;;;;;;;;;;-144.99;100.00;52619.31;5019890;28;20024;-77
2023/11/15 05:23:10;;;;;;;;;;;;;;;-144.99;100.00;52578.53;5031347;28;19960;-76
2023/11/15 05:25:36;;;;;;;;;;;;;;;-144.99;100.00;52578.53;5034858;28;19925;-79
2023/11/15 05:28:03;;;;;;;;;;;;;;;-144.99;100.00;52586.69;5023081;28;19986;-77
2023/11/15 05:30:33;;;;;;;;;;;;;;;-144.99;100.00;52611.16;5014102;28;19925;-76
2023/11/15 05:32:59;;;;;;;;;;;;;;;-144.99;100.00;52562.25;5031157;28;19932;-80
2023/11/15 05:35:26;;;;;;;;;;;;;;;-144.99;100.00;52627.47;5016783;28;19925;-82
2023/11/15 05:37:52;;;;;;;;;;;;;;;-144.99;100.00;52582.63;5028462;28;20380;-78
2023/11/15 05:40:18;;;;;;;;;;;;;;;-144.99;100.00;52578.53;5047657;28;19987;-78
2023/11/15 05:42:45;;;;;;;;;;;;;;;-144.99;100.00;52578.53;5036659;28;20339;-78
2023/11/15 05:45:12;;;;;;;;;;;;;;;-144.99;100.00;52598.94;5021139;28;19936;-77
2023/11/15 05:47:40;;;;;;;;;;;;;;;-144.99;100.00;52558.16;5017821;28;19964;-78
2023/11/15 05:50:09;;;;;;;;;;;;;;;-144.99;100.00;52564.28;5019445;28;19972;-77
2023/11/15 05:52:37;;;;;;;;;;;;;;;-144.99;100.00;52594.84;5015678;28;19925;-78
2023/11/15 05:55:05;;;;;;;;;;;;;;;-144.99;100.00;52607.09;5037519;28;19925;-78
2023/11/15 05:57:32;;;;;;;;;;;;;;;-144.99;100.00;52570.38;5026710;28;19926;-78
2023/11/15 05:59:59;;;;;;;;;;;;;;;-144.99;100.00;52627.47;5027320;28;19929;-78
2023/11/15 06:02:25;;;;;;;;;;;;;;;-144.99;100.00;52619.31;5021757;28;19937;-79
2023/11/15 06:04:53;;;;;;;;;;;;;;;-144.99;100.00;52598.94;5031986;28;20500;-78
2023/11/15 06:07:20;;;;;;;;;;;;;;;-144.99;100.00;52578.53;5024019;28;19925;-78
2023/11/15 06:09:46;;;;;;;;;;;;;;;-144.99;100.00;52613.19;5020847;28;19968;-78
2023/11/15 06:12:13;;;;;;;;;;;;;;;-144.99;100.00;52623.38;5020693;28;20027;-77
2023/11/15 06:14:39;;;;;;;;;;;;;;;-144.99;100.00;52607.09;5021888;28;19952;-79
2023/11/15 06:17:07;;;;;;;;;;;;;;;-144.99;100.00;52619.31;5024443;28;20007;-77
2023/11/15 06:19:34;;;;;;;;;;;;;;;-144.99;100.00;52570.38;5029791;28;19936;-80
2023/11/15 06:22:01;;;;;;;;;;;;;;;-144.99;100.00;52611.16;5025154;28;20012;-79
2023/11/15 06:24:29;;;;;;;;;;;;;;;-144.99;100.00;52598.94;5030044;28;20096;-79
2023/11/15 06:26:55;;;;;;;;;;;;;;;-144.99;100.00;52554.09;5027660;28;19925;-78
2023/11/15 06:29:22;;;;;;;;;;;;;;;-144.99;100.00;52643.78;5029255;28;19936;-76
2023/11/15 06:31:49;;;;;;;;;;;;;;;-144.99;100.00;52635.63;5021633;28;19929;-80
2023/11/15 06:34:15;;;;;;;;;;;;;;;-144.99;100.00;52611.16;5019812;28;19925;-77
2023/11/15 06:36:44;;;;;;;;;;;;;;;-144.99;100.00;52615.25;5020494;28;19929;-79
2023/11/15 06:39:12;;;;;;;;;;;;;;;-144.99;100.00;52586.69;5024192;28;19932;-76
2023/11/15 06:41:39;;;;;;;;;;;;;;;-144.99;100.00;52613.19;5024960;28;20303;-77
2023/11/15 06:44:06;;;;;;;;;;;;;;;-144.99;100.00;52582.63;5024935;28;19933;-77
2023/11/15 06:46:32;;;;;;;;;;;;;;;-144.99;100.00;52623.38;5019978;28;19956;-76
2023/11/15 06:48:59;;;;;;;;;;;;;;;-144.99;100.00;52598.94;5038013;28;20012;-78
2023/11/15 06:51:26;;;;;;;;;;;;;;;-144.99;100.00;52596.88;5017526;28;20312;-80
2023/11/15 06:53:53;;;;;;;;;;;;;;;-144.99;100.00;52611.16;5022568;28;19925;-76
2023/11/15 06:56:21;;;;;;;;;;;;;;;-144.99;100.00;52586.69;5030010;28;19957;-81
2023/11/15 06:58:47;;;;;;;;;;;;;;;-144.99;100.00;52651.94;5035108;28;20006;-78
2023/11/15 07:01:13;;;;;;;;;;;;;;;-144.99;100.00;52611.16;5030716;28;19929;-79
2023/11/15 07:03:43;;;;;;;;;;;;;;;-144.99;100.00;52613.19;5036087;28;20191;-77
2023/11/15 07:06:09;;;;;;;;;;;;;;;-144.99;100.00;52623.38;5030815;28;20486;-77
2023/11/15 07:08:36;;;;;;;;;;;;;;;-144.99;100.00;52598.94;5022129;28;19925;-77
2023/11/15 07:11:02;;;;;;;;;;;;;;;-144.99;100.00;52598.94;5031406;28;19936;-78
2023/11/15 07:13:31;;;;;;;;;;;;;;;-144.99;100.00;52578.53;5027203;28;19968;-79
2023/11/15 07:16:01;;;;;;;;;;;;;;;-144.99;100.00;52594.84;5017771;28;19926;-79
2023/11/15 07:18:28;;;;;;;;;;;;;;;-144.99;100.00;52603.00;5025653;28;19944;-77
2023/11/15 07:20:55;;;;;;;;;;;;;;;-144.99;100.00;52598.94;5030168;28;20006;-77
2023/11/15 07:23:21;;;;;;;;;;;;;;;-144.99;100.00;52592.81;5030921;28;20403;-79
2023/11/15 07:25:48;;;;;;;;;;;;;;;-144.99;100.00;52611.16;5024207;28;19936;-78
2023/11/15 07:28:15;;;;;;;;;;;;;;;-144.99;100.00;52607.09;5028131;28;19970;-78
2023/11/15 07:30:43;;;;;;;;;;;;;;;-144.99;100.00;52594.84;5029962;28;20007;-79
2023/11/15 07:33:10;;;;;;;;;;;;;;;-144.99;100.00;52627.47;5029745;28;19925;-77
2023/11/15 07:35:37;;;;;;;;;;;;;;;-144.99;100.00;52607.09;5041531;28;19969;-79
2023/11/15 07:38:03;;;;;;;;;;;;;;;-144.99;100.00;52619.31;5016883;28;19925;-78
2023/11/15 07:40:30;;;;;;;;;;;;;;;-144.99;100.00;52578.53;5014780;28;20308;-77
2023/11/15 07:42:57;;;;;;;;;;;;;;;-144.99;100.00;52613.19;5030447;28;19931;-78
2023/11/15 07:45:23;;;;;;;;;;;;;;;-144.99;100.00;52619.31;5016188;28;19925;-76
2023/11/15 07:47:53;;;;;;;;;;;;;;;-144.99;100.00;52586.69;5038424;28;19964;-77
2023/11/15 07:50:20;;;;;;;;;;;;;;;-144.99;100.00;52607.09;5021269;28;20480;-79
2023/11/15 07:52:47;;;;;;;;;;;;;;;-144.99;100.00;52617.28;5025493;28;20020;-80
2023/11/15 07:55:15;;;;;;;;;;;;;;;-144.99;100.00;52631.53;5021755;28;20365;-78
2023/11/15 07:57:41;;;;;;;;;;;;;;;-144.99;100.00;52590.78;5028263;28;19925;-79
2023/11/15 08:00:11;;;;;;;;;;;;;;;-144.99;100.00;52562.25;5025395;28;20027;-76
2023/11/15 08:02:38;;;;;;;;;;;;;;;-144.99;100.00;52582.63;5034336;28;19968;-78
2023/11/15 08:05:07;;;;;;;;;;;;;;;-144.99;100.00;52513.31;5033556;28;19972;-76
2023/11/15 08:07:34;;;;;;;;;;;;;;;-144.99;100.00;52541.84;5024801;28;19972;-78
2023/11/15 08:10:01;;;;;;;;;;;;;;;-144.99;100.00;52523.50;5033892;28;20312;-77
2023/11/15 08:12:35;;;;;;;;;;;;;;;-144.99;100.00;52533.69;5023173;28;19947;-77
2023/11/15 08:15:01;;;;;;;;;;;;;;;-144.99;100.00;52582.63;5056347;28;19929;-78
2023/11/15 08:17:28;;;;;;;;;;;;;;;-144.99;100.00;52586.69;5027119;28;19991;-79
2023/11/15 08:19:56;;;;;;;;;;;;;;;-144.99;100.00;52564.28;5024864;28;19972;-76
2023/11/15 08:22:24;;;;;;;;;;;;;;;-144.99;100.00;52541.84;5023073;28;19929;-77
2023/11/15 08:24:50;;;;;;;;;;;;;;;-144.99;100.00;52566.31;5027021;28;20122;-77
2023/11/15 08:27:17;;;;;;;;;;;;;;;-144.99;100.00;52584.66;5029677;28;19964;-77
2023/11/15 08:29:44;;;;;;;;;;;;;;;-144.99;100.00;52554.09;5028519;28;19971;-77
2023/11/15 08:32:11;;;;;;;;;;;;;;;-144.99;100.00;52560.19;5016810;28;19956;-78
2023/11/15 08:34:38;;;;;;;;;;;;;;;-144.99;100.00;52560.19;5022028;28;19925;-77
2023/11/15 08:37:05;;;;;;;;;;;;;;;-144.99;100.00;52531.66;5017458;28;20311;-78
2023/11/15 08:39:33;;;;;;;;;;;;;;;-144.99;100.00;52566.31;5032647;28;19926;-77
2023/11/15 08:42:00;;;;;;;;;;;;;;;-144.99;99.46;52525.56;5024572;28;20293;-77
2023/11/15 08:44:26;;;;;;;;;;;;;;;-144.99;97.23;52525.56;5026660;28;20015;-80
2023/11/15 08:46:53;;;;;;;;;;;;;;;-144.99;95.39;52476.63;5016533;28;19993;-76
2023/11/15 08:49:20;;;;;;;;;;;;;;;-144.99;93.80;52513.31;5025950;28;19968;-79
2023/11/15 08:51:47;;;;;;;;;;;;;;;-144.99;91.64;52509.25;5026167;28;19929;-77
2023/11/15 08:54:13;;;;;;;;;;;;;;;-144.99;90.74;52513.31;5030875;28;19960;-79
2023/11/15 08:56:41;;;;;;;;;;;;;;;-144.99;89.63;52488.84;5021525;28;19988;-77
2023/11/15 08:59:11;;;;;;;;;;;;;;;-144.99;86.58;52472.56;5021767;28;20407;-78
2023/11/15 09:01:38;;;;;;;;;;;;;;;-144.99;85.54;52533.69;5014417;28;19929;-79
2023/11/15 09:04:05;;;;;;;;;;;;;;;-144.99;85.86;52497.00;5020537;28;20383;-79
2023/11/15 09:06:32;;;;;;;;;;;;;;;-144.99;86.25;52521.47;5021216;28;19933;-77
2023/11/15 09:08:58;;;;;;;;;;;;;;;-144.99;83.59;52505.16;5023255;28;19988;-77
2023/11/15 09:11:25;;;;;;;;;;;;;;;-144.99;82.65;52505.16;5023193;28;20120;-78
2023/11/15 09:13:54;;;;;;;;;;;;;;;-144.99;82.40;52478.66;5037758;28;19929;-78
2023/11/15 09:16:22;;;;;;;;;;;;;;;-144.99;80.57;52470.50;5017349;28;19937;-77
2023/11/15 09:18:50;;;;;;;;;;;;;;;-144.99;79.88;52497.00;5017090;28;19925;-77
2023/11/15 09:21:18;;;;;;;;;;;;;;;-144.99;78.14;52513.31;5029112;28;19933;-78
2023/11/15 09:23:45;;;;;;;;;;;;;;;-144.99;76.84;52472.56;5018884;28;20101;-78
2023/11/15 09:26:13;;;;;;;;;;;;;;;-144.99;76.71;52505.16;5024913;28;19971;-79
2023/11/15 09:28:40;;;;;;;;;;;;;;;-144.99;75.01;52460.31;5014004;28;19930;-79
2023/11/15 09:31:07;;;;;;;;;;;;;;;-144.99;73.83;52460.31;5017930;28;19972;-78
2023/11/15 09:33:34;;;;;;;;;;;;;;;-144.99;73.09;52472.56;5029629;28;19953;-78
2023/11/15 09:36:01;;;;;;;;;;;;;;;-144.99;72.24;52407.31;5030151;28;19933;-76
2023/11/15 09:38:27;;;;;;;;;;;;;;;-144.99;70.53;52448.09;5017318;28;20030;-77
2023/11/15 09:40:54;;;;;;;;;;;;;;;-144.99;69.78;52448.09;5017264;28;19979;-80
2023/11/15 09:43:21;;;;;;;;;;;;;;;-144.99;69.89;52407.31;5021766;28;19968;-76
2023/11/15 09:45:48;;;;;;;;;;;;;;;-144.99;69.38;52421.59;5019711;28;20058;-77
2023/11/15 09:48:17;;;;;;;;;;;;;;;-144.99;68.70;52435.88;5011549;28;19972;-77
2023/11/15 09:50:48;;;;;;;;;;;;;;;-144.99;67.37;52386.94;5017764;28;20401;-76
2023/11/15 09:53:16;;;;;;;;;;;;;;;-144.99;66.88;52399.19;5019990;28;19925;-77
2023/11/15 09:55:42;;;;;;;;;;;;;;;-144.99;65.74;52423.63;5028314;28;20494;-79
2023/11/15 09:58:09;;;;;;;;;;;;;;;-144.99;65.51;52419.56;5014171;28;19926;-78
2023/11/15 10:00:35;;;;;;;;;;;;;;;-144.99;65.45;52395.09;5017579;28;19976;-77
2023/11/15 10:03:02;;;;;;;;;;;;;;;-144.99;65.95;52407.31;5017359;28;20415;-77
2023/11/15 10:05:32;;;;;;;;;;;;;;;-144.99;66.21;52399.19;5019285;28;19969;-78
2023/11/15 10:08:10;;;;;;;;;;;;;;;-144.99;66.07;52464.41;5018511;28;19949;-74
2023/11/15 10:10:37;;;;;;;;;;;;;;;-144.99;67.14;52476.63;5020026;28;19929;-81
2023/11/15 10:13:10;;;;;;;;;;;;;;;-144.99;67.34;52374.72;5014775;28;19930;-77
2023/11/15 10:15:39;;;;;;;;;;;;;;;-144.99;65.45;52423.63;5019760;28;20392;-77
2023/11/15 10:18:07;;;;;;;;;;;;;;;-144.99;65.19;52431.78;5026376;28;19933;-77
2023/11/15 10:20:36;;;;;;;;;;;;;;;-144.99;66.46;52482.75;5018742;28;20344;-77
2023/11/15 10:23:02;;;;;;;;;;;;;;;-144.99;67.45;52519.44;5026720;28;19954;-77
2023/11/15 10:25:31;;;;;;;;;;;;;;;-144.99;68.69;52509.25;5020410;28;19929;-77
2023/11/15 10:28:03;;;;;;;;;;;;;;;-144.99;70.28;52525.56;5019392;28;19925;-78
2023/11/15 10:30:30;;;;;;;;;;;;;;;-144.99;70.76;52525.56;5035927;28;20455;-79
2023/11/15 10:33:04;;;;;;;;;;;;;;;-144.99;70.92;52521.47;5024568;28;19933;-78
2023/11/15 10:35:32;;;;;;;;;;;;;;;-144.99;71.78;52537.78;5003356;28;19929;-77
2023/11/15 10:38:00;;;;;;;;;;;;;;;-144.99;72.66;52558.16;5024517;28;19929;-77
2023/11/15 10:40:29;;;;;;;;;;;;;;;-144.99;73.09;52570.38;5016833;28;19929;-77
2023/11/15 10:42:58;;;;;;;;;;;;;;;-144.99;73.98;52552.03;5023688;28;19929;-79
2023/11/15 10:45:27;;;;;;;;;;;;;;;-144.99;75.07;52574.47;5016520;28;20289;-77
2023/11/15 10:47:58;;;;;;;;;;;;;;;-144.99;75.43;52562.25;5017200;28;19937;-80
2023/11/15 10:50:27;;;;;;;;;;;;;;;-144.99;76.08;52578.53;5022006;28;19926;-79
2023/11/15 10:52:54;;;;;;;;;;;;;;;-144.99;76.91;52554.09;5029026;28;19930;-77
2023/11/15 10:55:23;;;;;;;;;;;;;;;-144.99;77.22;52574.47;5024965;28;19932;-79
2023/11/15 10:57:51;;;;;;;;;;;;;;;-144.99;75.83;52547.97;5021089;28;20533;-76
2023/11/15 11:00:19;;;;;;;;;;;;;;;-144.99;75.56;52517.41;5022467;28;19953;-77
2023/11/15 11:02:49;;;;;;;;;;;;;;;-144.99;76.24;52578.53;5021393;28;20348;-76
2023/11/15 11:05:18;;;;;;;;;;;;;;;-144.99;77.27;52592.81;5025305;28;19925;-78
2023/11/15 11:08:01;;;;;;;;;;;;;;;-144.99;78.15;52582.63;5025602;28;19948;-79
2023/11/15 11:10:32;;;;;;;;;;;;;;;-144.99;78.66;52603.00;5037485;28;20027;-78
2023/11/15 11:12:59;;;;;;;;;;;;;;;-144.99;78.72;52505.16;5018278;28;20348;-77
2023/11/15 11:15:27;;;;;;;;;;;;;;;-144.99;78.20;52525.56;5025154;28;20026;-79
2023/11/15 11:18:04;;;;;;;;;;;;;;;-144.99;76.08;52490.91;5023989;28;20001;-77
2023/11/15 11:20:35;;;;;;;;;;;;;;;-144.99;73.81;52499.06;5024118;28;20361;-79
2023/11/15 11:23:10;;;;;;;;;;;;;;;-144.99;71.96;52456.25;5031396;28;19961;-77
2023/11/15 11:25:39;;;;;;;;;;;;;;;-144.99;71.53;52346.19;5021693;28;19941;-80
2023/11/15 11:28:06;;;;;;;;;;;;;;;-144.99;68.92;52313.56;5025887;28;19924;-77
2023/11/15 11:30:33;;;;;;;;;;;;;;;-144.99;66.32;52329.88;5023354;28;19930;-80
2023/11/15 11:33:13;;;;;;;;;;;;;;;-144.99;64.00;52262.63;5036816;28;19920;-81
2023/11/15 11:35:41;;;;;;;;;;;;;;;-144.99;62.85;52376.75;5034256;28;19925;-79
2023/11/15 11:38:11;;;;;;;;;;;;;;;-144.99;63.30;52411.41;5022744;28;19929;-77
2023/11/15 11:40:40;;;;;;;;;;;;;;;-144.99;63.61;52301.34;5024555;28;19988;-77
2023/11/15 11:43:30;;;;;;;;;;;;;;;-144.99;63.44;52227.97;5024756;28;19979;-80
2023/11/15 11:45:57;;;;;;;;;;;;;;;-144.99;61.11;52325.81;5020311;28;19933;-79
2023/11/15 11:48:24;;;;;;;;;;;;;;;-144.99;60.97;52354.34;5039648;28;19973;-78
2023/11/15 11:50:52;;;;;;;;;;;;;;;-144.99;61.38;52223.88;5027783;28;19967;-78
2023/11/15 11:53:19;;;;;;;;;;;;;;;-144.99;60.07;52256.50;5027113;28;20008;-79
2023/11/15 11:55:48;;;;;;;;;;;;;;;-144.99;59.28;52313.56;5033010;28;19925;-78
2023/11/15 11:58:14;;;;;;;;;;;;;;;-144.99;59.17;52346.19;5024409;28;19925;-78
2023/11/15 12:00:41;;;;;;;;;;;;;;;-144.99;60.16;52317.66;5021020;28;20016;-78
2023/11/15 12:03:09;;;;;;;;;;;;;;;-144.99;60.01;52240.19;5020104;28;20322;-78
2023/11/15 12:05:36;;;;;;;;;;;;;;;-144.99;59.31;52246.31;5029813;28;19997;-78
2023/11/15 12:08:03;;;;;;;;;;;;;;;-144.99;58.18;52232.03;5022359;28;20387;-77
2023/11/15 12:10:30;;;;;;;;;;;;;;;-144.99;57.79;52370.63;5024820;28;19968;-79
2023/11/15 12:12:59;;;;;;;;;;;;;;;-144.99;59.15;52358.41;5033837;28;20024;-81
2023/11/15 12:15:25;;;;;;;;;;;;;;;-144.99;59.99;52452.16;5016377;28;19929;-79
2023/11/15 12:17:52;;;;;;;;;;;;;;;-144.99;61.27;52464.41;5020412;28;19976;-75
2023/11/15 12:20:26;;;;;;;;;;;;;;;-144.99;62.83;52507.19;5016451;28;19930;-79
2023/11/15 12:23:03;;;;;;;;;;;;;;;-144.99;64.62;52525.56;5023669;28;20024;-77
2023/11/15 12:25:30;;;;;;;;;;;;;;;-144.99;65.91;52513.31;5018869;28;19980;-77